createdAt,value
2019-02-18T00:02:17.459Z,0.76
2019-02-18T00:04:45.734Z,0.68
2019-02-18T00:07:14.939Z,0.66
2019-02-18T00:09:43.372Z,0.60
2019-02-18T00:12:11.634Z,0.54
2019-02-18T00:14:39.898Z,0.52
2019-02-18T00:17:08.161Z,0.52
2019-02-18T00:19:36.485Z,0.52
2019-02-18T00:22:04.707Z,0.52
2019-02-18T00:24:32.992Z,0.48
2019-02-18T00:27:01.278Z,0.48
2019-02-18T00:29:29.533Z,0.44
2019-02-18T00:31:57.823Z,0.43
2019-02-18T00:34:26.104Z,0.44
2019-02-18T00:36:54.551Z,0.42
2019-02-18T00:39:22.829Z,0.40
2019-02-18T00:41:51.156Z,0.32
2019-02-18T00:44:19.430Z,0.31
2019-02-18T00:46:47.726Z,0.33
2019-02-18T00:49:16.074Z,0.34
2019-02-18T00:51:44.367Z,0.32
2019-02-18T00:54:12.645Z,0.25
2019-02-18T00:56:40.914Z,0.13
2019-02-18T00:59:09.192Z,0.10
2019-02-18T01:01:37.451Z,0.10
2019-02-18T01:04:05.733Z,0.09
2019-02-18T01:06:34.006Z,0.08
2019-02-18T01:09:02.258Z,0.07
2019-02-18T01:11:30.602Z,0.05
2019-02-18T01:13:58.867Z,0.02
2019-02-18T01:16:27.182Z,0.00
2019-02-18T01:18:55.471Z,-0.01
2019-02-18T01:21:23.731Z,0.00
2019-02-18T01:23:52.105Z,-0.03
2019-02-18T01:26:20.415Z,-0.04
2019-02-18T01:28:48.762Z,-0.12
2019-02-18T01:31:17.042Z,-0.18
2019-02-18T01:33:45.337Z,-0.24
2019-02-18T01:36:13.647Z,-0.25
2019-02-18T01:38:42.010Z,-0.24
2019-02-18T01:41:10.371Z,-0.22
2019-02-18T01:43:38.811Z,-0.23
2019-02-18T01:46:07.203Z,-0.27
2019-02-18T01:48:35.558Z,-0.30
2019-02-18T01:51:03.870Z,-0.32
2019-02-18T01:53:32.131Z,-0.36
2019-02-18T01:56:00.444Z,-0.36
2019-02-18T01:58:28.720Z,-0.36
2019-02-18T02:00:57.000Z,-0.37
2019-02-18T02:03:25.407Z,-0.36
2019-02-18T02:05:53.639Z,-0.36
2019-02-18T02:08:21.966Z,-0.38
2019-02-18T02:10:50.253Z,-0.37
2019-02-18T02:13:30.035Z,-0.37
2019-02-18T02:15:58.951Z,-0.36
2019-02-18T02:18:27.228Z,-0.35
2019-02-18T02:20:55.625Z,-0.35
2019-02-18T02:23:23.904Z,-0.37
2019-02-18T02:25:52.230Z,-0.39
2019-02-18T02:28:20.500Z,-0.39
2019-02-18T02:30:48.770Z,-0.43
2019-02-18T02:33:17.030Z,-0.44
2019-02-18T02:35:45.333Z,-0.45
2019-02-18T02:38:13.786Z,-0.44
2019-02-18T02:40:42.117Z,-0.47
2019-02-18T02:43:10.457Z,-0.46
2019-02-18T02:45:38.777Z,-0.47
2019-02-18T02:48:07.130Z,-0.55
2019-02-18T02:50:35.432Z,-0.59
2019-02-18T02:53:03.711Z,-0.64
2019-02-18T02:55:32.009Z,-0.66
2019-02-18T02:58:00.304Z,-0.68
2019-02-18T03:00:28.668Z,-0.67
2019-02-18T03:02:56.953Z,-0.72
2019-02-18T03:05:25.247Z,-0.79
2019-02-18T03:07:53.562Z,-0.86
2019-02-18T03:10:21.906Z,-0.93
2019-02-18T03:12:52.933Z,-0.95
2019-02-18T03:15:21.299Z,-0.99
2019-02-18T03:17:51.251Z,-1.03
2019-02-18T03:20:19.548Z,-1.04
2019-02-18T03:22:47.814Z,-1.05
2019-02-18T03:25:27.680Z,-1.09
2019-02-18T03:28:20.214Z,-1.15
2019-02-18T03:30:54.209Z,-1.16
2019-02-18T03:33:28.508Z,-1.17
2019-02-18T03:35:56.794Z,-1.16
2019-02-18T03:38:31.711Z,-1.17
2019-02-18T03:41:02.731Z,-1.16
2019-02-18T03:43:25.170Z,-1.15
2019-02-18T03:45:53.583Z,-1.16
2019-02-18T03:48:21.881Z,-1.17
2019-02-18T03:50:50.227Z,-1.19
2019-02-18T03:53:18.494Z,-4.51
2019-02-18T03:55:46.804Z,-1.21
2019-02-18T03:58:15.207Z,-1.23
2019-02-18T04:00:43.501Z,-1.24
2019-02-18T04:03:11.777Z,-1.28
2019-02-18T04:05:40.081Z,-1.30
2019-02-18T04:08:08.650Z,-1.36
2019-02-18T04:10:36.932Z,-1.42
2019-02-18T04:13:05.285Z,-1.47
2019-02-18T04:15:33.619Z,-1.51
2019-02-18T04:18:02.069Z,-1.50
2019-02-18T04:20:30.338Z,-1.51
2019-02-18T04:22:58.804Z,-1.49
2019-02-18T04:25:27.313Z,-1.51
2019-02-18T04:27:55.615Z,-1.54
2019-02-18T04:30:23.918Z,-1.55
2019-02-18T04:32:52.309Z,-1.56
2019-02-18T04:35:20.895Z,-1.57
2019-02-18T04:37:49.647Z,-1.57
2019-02-18T04:40:18.018Z,-1.58
2019-02-18T04:42:46.445Z,-1.60
2019-02-18T04:45:14.945Z,-1.60
2019-02-18T04:47:43.385Z,-1.62
2019-02-18T04:50:14.928Z,-1.70
2019-02-18T04:52:43.454Z,-1.75
2019-02-18T04:55:12.109Z,-1.75
2019-02-18T04:57:40.483Z,-1.79
2019-02-18T05:00:10.078Z,-1.80
2019-02-18T05:02:38.448Z,-1.78
2019-02-18T05:05:11.117Z,-1.77
2019-02-18T05:07:39.532Z,-1.75
2019-02-18T05:10:11.907Z,-1.79
2019-02-18T05:12:40.272Z,-1.83
2019-02-18T05:15:09.760Z,-1.84
2019-02-18T05:17:38.272Z,-1.85
2019-02-18T05:20:07.883Z,-1.91
2019-02-18T05:22:39.472Z,-1.93
2019-02-18T05:25:09.411Z,-1.95
2019-02-18T05:27:37.860Z,-1.93
2019-02-18T05:30:09.176Z,-1.92
2019-02-18T05:32:40.164Z,-1.91
2019-02-18T05:35:11.221Z,-1.89
2019-02-18T05:37:42.207Z,-1.90
2019-02-18T05:40:10.785Z,-1.96
2019-02-18T05:42:39.363Z,-2.00
2019-02-18T05:45:08.922Z,-2.01
2019-02-18T05:47:39.589Z,-2.00
2019-02-18T05:50:08.761Z,-1.99
2019-02-18T05:52:39.178Z,-2.00
2019-02-18T05:55:07.719Z,-1.99
2019-02-18T05:57:36.061Z,-2.01
2019-02-18T06:00:09.918Z,-2.05
2019-02-18T06:02:38.692Z,-2.12
2019-02-18T06:05:08.089Z,-2.13
2019-02-18T06:07:36.745Z,-2.13
2019-02-18T06:10:08.056Z,-2.11
2019-02-18T06:12:36.555Z,-2.09
2019-02-18T06:15:10.002Z,-2.10
2019-02-18T06:17:38.558Z,-2.13
2019-02-18T06:20:09.139Z,-2.18
2019-02-18T06:22:38.660Z,-2.20
2019-02-18T06:25:07.374Z,-2.20
2019-02-18T06:27:35.836Z,-2.26
2019-02-18T06:30:04.366Z,-2.28
2019-02-18T06:32:32.950Z,-2.26
2019-02-18T06:35:03.123Z,-2.25
2019-02-18T06:37:31.546Z,-2.23
2019-02-18T06:40:00.338Z,-2.21
2019-02-18T06:42:28.750Z,-2.19
2019-02-18T06:44:58.701Z,-2.18
2019-02-18T06:47:26.990Z,-2.18
2019-02-18T06:49:55.455Z,-2.17
2019-02-18T06:52:23.762Z,-2.22
2019-02-18T06:54:52.043Z,-2.24
2019-02-18T06:57:24.376Z,-2.21
2019-02-18T06:59:53.540Z,-2.29
2019-02-18T07:02:23.475Z,-2.35
2019-02-18T07:04:56.670Z,-2.30
2019-02-18T07:07:35.417Z,-2.25
2019-02-18T07:10:05.826Z,-2.20
2019-02-18T07:12:35.759Z,-2.15
2019-02-18T07:15:04.483Z,-2.12
2019-02-18T07:17:33.090Z,-2.08
2019-02-18T07:20:01.520Z,-2.07
2019-02-18T07:22:30.025Z,-2.03
2019-02-18T07:24:58.287Z,-2.00
2019-02-18T07:27:26.637Z,-1.97
2019-02-18T07:29:55.823Z,-1.93
2019-02-18T07:32:24.500Z,-1.92
2019-02-18T07:34:56.252Z,-1.90
2019-02-18T07:37:24.737Z,-1.87
2019-02-18T07:40:01.159Z,-1.81
2019-02-18T07:42:25.755Z,-1.78
2019-02-18T07:44:54.348Z,-1.75
2019-02-18T07:47:22.771Z,-1.70
2019-02-18T07:49:51.163Z,-1.66
2019-02-18T07:52:19.641Z,-1.60
2019-02-18T07:54:48.155Z,-1.52
2019-02-18T07:57:16.568Z,-1.47
2019-02-18T07:59:44.949Z,-1.42
2019-02-18T08:02:13.426Z,-1.38
2019-02-18T08:04:41.853Z,-1.31
2019-02-18T08:07:10.195Z,-1.23
2019-02-18T08:09:38.598Z,-1.16
2019-02-18T08:12:06.951Z,-1.10
2019-02-18T08:14:35.251Z,-1.05
2019-02-18T08:17:03.528Z,-1.01
2019-02-18T08:19:31.809Z,-0.94
2019-02-18T08:22:00.154Z,-0.84
2019-02-18T08:24:28.528Z,-0.79
2019-02-18T08:26:56.897Z,-0.70
2019-02-18T08:29:25.181Z,-0.61
2019-02-18T08:31:53.561Z,-0.55
2019-02-18T08:34:21.829Z,-0.46
2019-02-18T08:36:50.326Z,-0.36
2019-02-18T08:39:18.614Z,-0.26
2019-02-18T08:41:46.982Z,-0.06
2019-02-18T08:44:15.306Z,0.12
2019-02-18T08:46:43.595Z,0.33
2019-02-18T08:49:11.876Z,0.57
2019-02-18T08:51:40.290Z,0.86
2019-02-18T08:54:08.585Z,1.13
2019-02-18T08:56:36.863Z,1.55
2019-02-18T08:59:05.202Z,1.94
2019-02-18T09:01:33.560Z,2.38
2019-02-18T09:04:01.886Z,2.82
2019-02-18T09:06:30.243Z,3.36
2019-02-18T09:08:58.604Z,3.81
2019-02-18T09:11:29.980Z,4.12
2019-02-18T09:13:58.391Z,4.48
2019-02-18T09:16:26.828Z,4.94
2019-02-18T09:18:55.227Z,5.34
2019-02-18T09:21:24.178Z,5.72
2019-02-18T09:23:54.269Z,6.11
2019-02-18T09:26:22.878Z,6.44
2019-02-18T09:28:51.316Z,6.81
2019-02-18T09:31:21.303Z,7.20
2019-02-18T09:33:49.921Z,7.58
2019-02-18T09:36:18.388Z,7.90
2019-02-18T09:38:49.229Z,8.21
2019-02-18T09:41:17.778Z,8.54
2019-02-18T09:43:46.068Z,8.77
2019-02-18T09:46:14.412Z,8.97
2019-02-18T09:48:42.741Z,9.20
2019-02-18T09:51:11.082Z,9.44
2019-02-18T09:53:39.470Z,9.66
2019-02-18T09:56:07.865Z,9.82
2019-02-18T09:58:36.292Z,9.88
2019-02-18T10:01:04.691Z,9.82
2019-02-18T10:03:33.042Z,9.83
2019-02-18T10:06:03.063Z,9.85
2019-02-18T10:08:31.473Z,9.92
2019-02-18T10:10:59.748Z,10.06
2019-02-18T10:13:28.192Z,10.28
2019-02-18T10:15:56.450Z,10.48
2019-02-18T10:18:24.789Z,10.72
2019-02-18T10:20:53.051Z,10.90
2019-02-18T10:23:21.449Z,11.00
2019-02-18T10:25:49.858Z,11.06
2019-02-18T10:28:18.177Z,11.17
2019-02-18T10:30:46.586Z,11.27
2019-02-18T10:33:15.011Z,11.40
2019-02-18T10:35:43.478Z,11.38
2019-02-18T10:38:11.812Z,8.65
2019-02-18T10:40:40.205Z,11.43
2019-02-18T10:43:08.594Z,11.57
2019-02-18T10:45:36.935Z,11.70
2019-02-18T10:48:05.289Z,11.79
2019-02-18T10:50:33.627Z,11.75
2019-02-18T10:53:02.135Z,11.79
2019-02-18T10:55:30.644Z,11.95
2019-02-18T10:57:59.053Z,12.06
2019-02-18T11:00:28.180Z,12.22
2019-02-18T11:02:56.438Z,12.34
2019-02-18T11:05:24.705Z,12.42
2019-02-18T11:07:52.959Z,12.53
2019-02-18T11:10:21.238Z,12.73
2019-02-18T11:12:49.568Z,11.94
2019-02-18T11:15:17.829Z,12.92
2019-02-18T11:17:46.365Z,13.10
2019-02-18T11:20:14.698Z,13.24
2019-02-18T11:22:42.977Z,13.35
2019-02-18T11:25:12.631Z,12.88
2019-02-18T11:27:40.925Z,13.69
2019-02-18T11:30:12.079Z,13.84
2019-02-18T11:32:40.340Z,13.99
2019-02-18T11:35:08.608Z,14.20
2019-02-18T11:37:36.866Z,14.33
2019-02-18T11:40:11.476Z,13.47
2019-02-18T11:42:39.739Z,14.51
2019-02-18T11:45:10.917Z,14.64
2019-02-18T11:47:39.176Z,14.78
2019-02-18T11:50:10.002Z,14.94
2019-02-18T11:52:38.273Z,15.08
2019-02-18T11:55:09.475Z,15.02
2019-02-18T11:57:37.731Z,15.08
2019-02-18T12:00:08.898Z,15.24
2019-02-18T12:02:37.164Z,15.40
2019-02-18T12:05:07.276Z,15.60
2019-02-18T12:07:35.564Z,15.83
2019-02-18T12:10:04.176Z,16.05
2019-02-18T12:12:32.431Z,16.31
2019-02-18T12:15:00.971Z,16.47
2019-02-18T12:17:29.236Z,16.49
2019-02-18T12:19:57.529Z,16.55
2019-02-18T12:22:25.800Z,16.59
2019-02-18T12:24:54.053Z,16.51
2019-02-18T12:27:22.322Z,16.51
2019-02-18T12:29:50.580Z,16.44
2019-02-18T12:32:19.138Z,16.43
2019-02-18T12:34:47.401Z,16.28
2019-02-18T12:37:15.656Z,16.20
2019-02-18T12:39:43.921Z,16.08
2019-02-18T12:42:12.189Z,16.14
2019-02-18T12:44:40.477Z,16.16
2019-02-18T12:47:11.125Z,16.19
2019-02-18T12:49:39.388Z,16.24
2019-02-18T12:52:07.872Z,16.35
2019-02-18T12:54:36.283Z,16.48
2019-02-18T12:57:04.564Z,16.58
2019-02-18T12:59:33.259Z,16.62
2019-02-18T13:02:01.817Z,16.69
2019-02-18T13:04:32.063Z,16.76
2019-02-18T13:07:00.615Z,16.74
2019-02-18T13:09:28.936Z,16.54
2019-02-18T13:11:59.362Z,16.51
2019-02-18T13:14:27.257Z,16.50
2019-02-18T13:16:55.576Z,16.50
2019-02-18T13:19:23.888Z,16.25
2019-02-18T13:21:52.574Z,16.27
2019-02-18T13:24:21.180Z,16.29
2019-02-18T13:26:51.062Z,16.33
2019-02-18T13:29:19.347Z,16.37
2019-02-18T13:31:47.602Z,16.41
2019-02-18T13:34:15.870Z,16.48
2019-02-18T13:36:44.146Z,16.50
2019-02-18T13:39:12.411Z,16.50
2019-02-18T13:41:40.710Z,16.46
2019-02-18T13:44:08.964Z,16.45
2019-02-18T13:46:37.229Z,16.35
2019-02-18T13:49:05.636Z,16.31
2019-02-18T13:51:33.893Z,16.25
2019-02-18T13:54:02.181Z,16.18
2019-02-18T13:56:30.937Z,16.17
2019-02-18T13:58:59.200Z,16.18
2019-02-18T14:01:27.466Z,16.07
2019-02-18T14:03:55.719Z,15.89
2019-02-18T14:06:23.991Z,15.75
2019-02-18T14:09:05.724Z,15.55
2019-02-18T14:11:34.004Z,15.45
2019-02-18T14:14:02.625Z,15.31
2019-02-18T14:16:30.978Z,15.27
2019-02-18T14:18:59.399Z,15.20
2019-02-18T14:21:27.734Z,15.17
2019-02-18T14:23:56.031Z,15.12
2019-02-18T14:26:25.725Z,15.03
2019-02-18T14:28:54.371Z,14.94
2019-02-18T14:31:22.657Z,14.87
2019-02-18T14:33:51.194Z,14.78
2019-02-18T14:36:19.750Z,14.58
2019-02-18T14:38:48.337Z,14.44
2019-02-18T14:41:16.895Z,14.30
2019-02-18T14:43:45.154Z,13.99
2019-02-18T14:46:13.435Z,13.63
2019-02-18T14:49:06.016Z,13.49
2019-02-18T14:51:34.804Z,13.44
2019-02-18T14:57:10.983Z,13.21
2019-02-18T14:59:40.010Z,13.01
2019-02-18T15:05:02.697Z,12.68
2019-02-18T15:23:55.082Z,12.11
2019-02-18T15:26:37.632Z,12.00
2019-02-18T15:29:25.527Z,11.89
2019-02-18T15:31:46.730Z,11.86
2019-02-18T15:34:41.533Z,11.82
2019-02-18T15:37:16.395Z,11.71
2019-02-18T15:39:56.544Z,11.53
2019-02-18T15:42:25.020Z,11.40
2019-02-18T15:44:57.772Z,11.34
2019-02-18T15:47:26.175Z,11.22
2019-02-18T15:50:11.272Z,11.13
2019-02-18T15:53:08.938Z,11.02
2019-02-18T15:55:37.510Z,10.92
2019-02-18T15:58:16.651Z,10.83
2019-02-18T16:01:34.710Z,10.75
2019-02-18T16:13:29.755Z,10.24
2019-02-18T16:19:24.825Z,10.22
2019-02-18T16:24:59.579Z,10.11
2019-02-18T16:31:12.201Z,9.87
2019-02-18T16:33:49.463Z,9.61
2019-02-18T16:39:26.363Z,9.49
2019-02-18T16:44:58.869Z,9.37
2019-02-18T16:50:25.028Z,9.18
2019-02-18T16:52:53.367Z,9.03
2019-02-18T16:55:21.723Z,8.84
2019-02-18T16:57:50.235Z,8.78
2019-02-18T17:00:28.797Z,8.67
2019-02-18T17:02:57.177Z,8.51
2019-02-18T17:05:25.493Z,8.37
2019-02-18T17:07:53.735Z,8.19
2019-02-18T17:10:22.022Z,8.13
2019-02-18T17:12:50.515Z,8.13
2019-02-18T17:15:18.769Z,8.05
2019-02-18T17:17:47.061Z,7.90
2019-02-18T17:20:15.344Z,7.76
2019-02-18T17:22:43.714Z,7.63
2019-02-18T17:25:13.459Z,7.50
2019-02-18T17:27:42.125Z,7.46
2019-02-18T17:30:16.852Z,7.45
2019-02-18T17:32:45.197Z,7.40
2019-02-18T17:35:14.293Z,7.32
2019-02-18T17:37:42.651Z,7.23
2019-02-18T17:40:13.119Z,7.11
2019-02-18T17:42:41.761Z,7.03
2019-02-18T17:45:17.425Z,6.92
2019-02-18T17:47:45.745Z,6.83
2019-02-18T17:50:15.419Z,6.72
2019-02-18T17:52:43.757Z,6.58
2019-02-18T17:55:14.521Z,6.46
2019-02-18T17:57:43.249Z,6.37
2019-02-18T18:00:17.518Z,6.32
2019-02-18T18:02:45.943Z,6.27
2019-02-18T18:05:14.270Z,6.17
2019-02-18T18:07:42.719Z,6.12
2019-02-18T18:10:14.225Z,6.04
2019-02-18T18:12:42.483Z,6.00
2019-02-18T18:15:19.182Z,5.92
2019-02-18T18:17:47.447Z,5.84
2019-02-18T18:20:15.708Z,5.78
2019-02-18T18:22:43.998Z,5.71
2019-02-18T18:25:13.678Z,5.60
2019-02-18T18:27:41.933Z,5.51
2019-02-18T18:30:12.997Z,5.43
2019-02-18T18:32:41.315Z,5.36
2019-02-18T18:35:11.559Z,5.22
2019-02-18T18:37:39.820Z,5.15
2019-02-18T18:40:11.629Z,5.11
2019-02-18T18:42:39.925Z,5.03
2019-02-18T18:45:10.727Z,4.94
2019-02-18T18:47:38.989Z,4.79
2019-02-18T18:50:10.529Z,2.69
2019-02-18T18:52:38.819Z,4.64
2019-02-18T18:55:07.081Z,4.55
2019-02-18T18:57:35.344Z,4.45
2019-02-18T19:00:05.005Z,4.38
2019-02-18T19:02:33.335Z,4.36
2019-02-18T19:05:01.614Z,4.30
2019-02-18T19:07:29.861Z,2.29
2019-02-18T19:09:58.307Z,4.27
2019-02-18T19:12:26.562Z,4.25
2019-02-18T19:14:54.848Z,4.25
2019-02-18T19:17:23.117Z,4.21
2019-02-18T19:19:57.679Z,4.16
2019-02-18T19:22:21.373Z,4.14
2019-02-18T19:24:49.917Z,4.11
2019-02-18T19:27:18.194Z,4.07
2019-02-18T19:29:46.459Z,4.03
2019-02-18T19:32:14.715Z,3.94
2019-02-18T19:34:42.981Z,3.87
2019-02-18T19:37:11.235Z,3.83
2019-02-18T19:39:39.793Z,3.81
2019-02-18T19:42:08.054Z,3.78
2019-02-18T19:44:36.336Z,3.72
2019-02-18T19:47:04.597Z,3.56
2019-02-18T19:49:32.856Z,3.43
2019-02-18T19:52:01.124Z,3.22
2019-02-18T19:54:29.384Z,3.09
2019-02-18T19:56:57.672Z,3.07
2019-02-18T19:59:25.929Z,3.08
2019-02-18T20:01:54.189Z,3.10
2019-02-18T20:04:22.520Z,3.10
2019-02-18T20:06:50.784Z,3.01
2019-02-18T20:09:19.081Z,2.94
2019-02-18T20:11:47.508Z,2.93
2019-02-18T20:14:15.821Z,2.86
2019-02-18T20:16:44.081Z,2.73
2019-02-18T20:19:12.381Z,2.70
2019-02-18T20:21:43.339Z,2.67
2019-02-18T20:24:12.638Z,2.62
2019-02-18T20:26:41.233Z,2.57
2019-02-18T20:29:12.028Z,2.52
2019-02-18T20:31:40.397Z,2.48
2019-02-18T20:34:08.851Z,2.42
2019-02-18T20:36:37.205Z,2.38
2019-02-18T20:39:05.790Z,2.38
2019-02-18T20:41:34.298Z,2.34
2019-02-18T20:45:00.680Z,2.32
2019-02-18T20:48:46.822Z,2.22
2019-02-18T20:51:15.088Z,2.18
2019-02-18T20:53:43.367Z,2.18
2019-02-18T20:56:11.636Z,2.11
2019-02-18T20:58:39.957Z,2.10
2019-02-18T21:01:08.304Z,2.11
2019-02-18T21:03:36.603Z,2.13
2019-02-18T21:06:04.976Z,2.10
2019-02-18T21:08:33.242Z,2.03
2019-02-18T21:11:01.540Z,2.04
2019-02-18T21:13:29.821Z,1.97
2019-02-18T21:15:58.176Z,1.93
2019-02-18T21:18:26.504Z,1.92
2019-02-18T21:20:54.776Z,1.85
2019-02-18T21:23:23.088Z,1.78
2019-02-18T21:25:51.379Z,1.72
2019-02-18T21:28:19.873Z,1.65
2019-02-18T21:30:48.400Z,1.40
2019-02-18T21:33:16.741Z,1.64
2019-02-18T21:35:45.124Z,1.65
2019-02-18T21:38:13.409Z,1.64
2019-02-18T21:40:41.761Z,1.60
2019-02-18T21:43:10.046Z,1.53
2019-02-18T21:45:38.926Z,1.52
2019-02-18T21:48:09.002Z,1.52
2019-02-18T21:50:37.502Z,1.51
2019-02-18T21:53:05.883Z,1.50
2019-02-18T21:55:34.250Z,1.49
2019-02-18T21:58:02.563Z,1.45
2019-02-18T22:00:32.060Z,1.40
2019-02-18T22:03:00.513Z,1.34
2019-02-18T22:05:28.817Z,1.31
2019-02-18T22:07:57.096Z,1.28
2019-02-18T22:10:25.457Z,1.23
2019-02-18T22:12:53.709Z,1.23
2019-02-18T22:15:21.987Z,1.24
2019-02-18T22:17:50.309Z,1.22
2019-02-18T22:20:18.588Z,1.22
2019-02-18T22:22:46.933Z,1.21
2019-02-18T22:25:15.223Z,1.16
2019-02-18T22:27:43.660Z,1.13
2019-02-18T22:30:15.535Z,1.03
2019-02-18T22:32:43.806Z,0.95
2019-02-18T22:35:12.085Z,0.91
2019-02-18T22:37:40.341Z,0.90
2019-02-18T22:40:10.031Z,0.93
2019-02-18T22:42:38.310Z,0.91
2019-02-18T22:45:08.109Z,0.89
2019-02-18T22:47:36.404Z,0.82
2019-02-18T22:50:04.822Z,0.77
2019-02-18T22:52:33.663Z,0.50
2019-02-18T22:55:01.947Z,0.77
2019-02-18T22:57:30.217Z,0.73
2019-02-18T22:59:58.491Z,0.68
2019-02-18T23:02:26.893Z,0.67
2019-02-18T23:04:55.124Z,0.61
2019-02-18T23:07:23.570Z,0.59
2019-02-18T23:09:52.101Z,0.61
2019-02-18T23:12:20.351Z,0.61
2019-02-18T23:14:50.543Z,0.58
2019-02-18T23:17:18.639Z,0.52
2019-02-18T23:19:46.894Z,0.47
2019-02-18T23:22:15.244Z,0.42
2019-02-18T23:24:43.538Z,0.41
2019-02-18T23:27:11.990Z,0.40
2019-02-18T23:29:40.291Z,0.42
2019-02-18T23:32:08.556Z,0.44
2019-02-18T23:34:36.856Z,0.44
2019-02-18T23:37:05.123Z,0.45
2019-02-18T23:39:33.387Z,0.42
2019-02-18T23:42:01.695Z,0.39
2019-02-18T23:44:30.021Z,0.37
2019-02-18T23:46:58.296Z,0.33
2019-02-18T23:49:26.556Z,0.28
2019-02-18T23:51:54.862Z,0.25
2019-02-18T23:54:23.166Z,0.26
2019-02-18T23:56:51.581Z,-4.94
2019-02-18T23:59:19.850Z,0.26
